Time;durP1;ratioP1;P1;durP2;ratioP2;P2;SDS_P1;SDS_P2;PMS_P1;PMS_P2;Temp;Humidity;BMP_temperature;BMP_pressure;BME280_temperature;BME280_humidity;BME280_pressure;Samples;Min_cycle;Max_cycle;Signal;HPM_P1;HPM_P2
2023/10/29 00:01:26;;;;;;;1.70;1.60;;;14.00;99.90;;;;;;981070;143;27349;-77
2023/10/29 00:03:50;;;;;;;2.35;2.02;;;14.00;99.90;;;;;;978847;143;27247;-77
2023/10/29 00:06:17;;;;;;;3.20;2.20;;;14.00;99.90;;;;;;980092;144;27367;-78
2023/10/29 00:08:43;;;;;;;3.33;2.00;;;14.00;99.90;;;;;;978427;143;27244;-78
2023/10/29 00:11:10;;;;;;;1.90;1.55;;;14.00;99.90;;;;;;979160;144;28025;-78
2023/10/29 00:13:37;;;;;;;2.22;1.82;;;13.90;99.90;;;;;;981586;144;27345;-77
2023/10/29 00:16:03;;;;;;;1.80;1.70;;;14.00;99.90;;;;;;980554;143;27367;-77
2023/10/29 00:18:30;;;;;;;3.67;1.85;;;13.90;99.90;;;;;;981946;145;27356;-77
2023/10/29 00:20:56;;;;;;;2.07;1.50;;;13.90;99.90;;;;;;980411;144;27264;-78
2023/10/29 00:23:23;;;;;;;5.60;2.25;;;13.90;99.90;;;;;;978391;143;27284;-77
2023/10/29 00:25:50;;;;;;;2.77;1.80;;;13.90;99.90;;;;;;979301;143;27268;-78
2023/10/29 00:28:16;;;;;;;2.62;2.30;;;13.90;99.90;;;;;;977681;143;27272;-78
2023/10/29 00:30:43;;;;;;;4.13;2.20;;;13.90;99.90;;;;;;979419;144;27281;-77
2023/10/29 00:33:09;;;;;;;3.07;2.07;;;13.90;99.90;;;;;;979311;143;27260;-78
2023/10/29 00:35:36;;;;;;;4.33;2.10;;;13.90;99.90;;;;;;980147;146;27226;-78
2023/10/29 00:38:03;;;;;;;2.35;2.00;;;13.90;99.90;;;;;;981338;144;27332;-78
2023/10/29 00:40:30;;;;;;;5.33;2.03;;;13.90;99.90;;;;;;980898;143;27280;-78
2023/10/29 00:42:56;;;;;;;3.40;2.12;;;13.90;99.90;;;;;;979373;143;27270;-78
2023/10/29 00:45:22;;;;;;;2.70;1.80;;;13.90;99.90;;;;;;979852;143;27317;-77
2023/10/29 00:47:49;;;;;;;2.60;1.90;;;13.90;99.90;;;;;;978800;144;27201;-77
2023/10/29 00:50:15;;;;;;;3.90;2.50;;;13.90;99.90;;;;;;979053;143;27356;-78
2023/10/29 00:52:42;;;;;;;5.75;2.20;;;13.90;99.90;;;;;;980027;143;27337;-78
2023/10/29 00:55:09;;;;;;;3.12;2.10;;;13.90;99.90;;;;;;980223;143;27357;-77
2023/10/29 00:57:35;;;;;;;5.07;1.90;;;13.90;99.90;;;;;;976992;143;27377;-78
2023/10/29 01:00:02;;;;;;;3.00;2.20;;;13.90;99.90;;;;;;972995;145;27289;-77
2023/10/29 01:02:28;;;;;;;4.00;2.35;;;13.90;99.90;;;;;;974857;143;28429;-78
2023/10/29 01:04:56;;;;;;;2.42;1.90;;;13.90;99.90;;;;;;972476;144;27292;-79
2023/10/29 01:07:22;;;;;;;3.37;1.75;;;13.90;99.90;;;;;;972889;143;27860;-77
2023/10/29 01:09:50;;;;;;;1.90;1.80;;;13.90;99.90;;;;;;975390;144;27353;-76
2023/10/29 01:12:16;;;;;;;4.25;1.82;;;13.90;99.90;;;;;;973515;143;27310;-79
2023/10/29 01:14:41;;;;;;;2.12;1.92;;;13.90;99.90;;;;;;974360;144;27770;-75
2023/10/29 01:17:08;;;;;;;2.15;1.92;;;13.90;99.90;;;;;;973551;146;27296;-76
2023/10/29 01:19:35;;;;;;;2.92;1.98;;;13.90;99.90;;;;;;976523;143;27241;-74
2023/10/29 01:22:01;;;;;;;3.05;1.82;;;13.90;99.90;;;;;;975909;143;27275;-75
2023/10/29 01:24:28;;;;;;;3.25;2.33;;;14.00;99.90;;;;;;976286;145;27278;-77
2023/10/29 01:26:54;;;;;;;2.20;1.90;;;14.00;99.90;;;;;;974986;143;27298;-74
2023/10/29 01:29:21;;;;;;;2.72;1.90;;;14.00;99.90;;;;;;976123;143;27249;-75
2023/10/29 01:31:48;;;;;;;2.25;1.77;;;14.00;99.90;;;;;;974804;144;27361;-74
2023/10/29 01:34:14;;;;;;;1.82;1.72;;;14.00;99.90;;;;;;975650;143;27710;-76
2023/10/29 01:36:41;;;;;;;3.12;1.98;;;14.00;99.90;;;;;;975566;143;27615;-75
2023/10/29 01:39:07;;;;;;;2.30;2.10;;;14.00;99.90;;;;;;974673;143;27248;-75
2023/10/29 01:41:34;;;;;;;3.47;1.82;;;14.00;99.90;;;;;;974858;146;27221;-77
2023/10/29 01:44:00;;;;;;;2.95;1.95;;;14.10;99.90;;;;;;974825;143;27304;-75
2023/10/29 01:46:27;;;;;;;3.15;1.92;;;14.10;99.90;;;;;;975542;144;27221;-75
2023/10/29 01:48:54;;;;;;;2.72;2.02;;;14.10;99.90;;;;;;976579;143;27296;-74
2023/10/29 01:51:20;;;;;;;2.50;1.90;;;14.00;99.90;;;;;;974301;144;27618;-75
2023/10/29 01:53:47;;;;;;;1.87;1.77;;;14.00;99.90;;;;;;975713;144;27353;-74
2023/10/29 01:56:13;;;;;;;2.20;2.00;;;14.00;99.90;;;;;;974072;144;27277;-75
2023/10/29 01:58:40;;;;;;;4.87;2.10;;;14.00;99.90;;;;;;980780;146;27417;-75
2023/10/29 02:01:10;;;;;;;1.77;1.60;;;14.00;99.90;;;;;;981414;143;27279;-74
2023/10/29 02:03:36;;;;;;;1.90;1.70;;;14.00;99.90;;;;;;981114;143;27229;-75
2023/10/29 02:06:02;;;;;;;2.47;1.80;;;14.10;99.90;;;;;;980732;143;27330;-74
2023/10/29 02:08:29;;;;;;;2.15;1.95;;;14.00;99.90;;;;;;980694;144;27272;-74
2023/10/29 02:10:56;;;;;;;2.80;2.00;;;14.00;99.90;;;;;;978251;143;27256;-75
2023/10/29 02:13:22;;;;;;;4.27;2.33;;;14.00;99.90;;;;;;981457;143;27227;-75
2023/10/29 02:15:49;;;;;;;5.58;2.17;;;14.10;99.90;;;;;;980082;143;27625;-77
2023/10/29 02:18:15;;;;;;;2.72;1.80;;;14.00;99.90;;;;;;980130;143;27192;-76
2023/10/29 02:20:42;;;;;;;2.83;2.08;;;14.00;99.90;;;;;;979202;143;27328;-75
2023/10/29 02:23:09;;;;;;;2.77;2.00;;;14.10;99.90;;;;;;979643;143;27294;-76
2023/10/29 02:25:36;;;;;;;2.90;2.27;;;14.10;99.90;;;;;;980054;146;27268;-78
2023/10/29 02:28:02;;;;;;;3.25;2.10;;;14.10;99.90;;;;;;980277;143;27342;-78
2023/10/29 02:30:28;;;;;;;3.47;2.10;;;14.10;99.90;;;;;;980296;143;27223;-77
2023/10/29 02:32:55;;;;;;;2.45;1.90;;;14.10;99.90;;;;;;980562;144;27252;-78
2023/10/29 02:35:22;;;;;;;3.00;2.20;;;14.10;99.90;;;;;;980998;144;27337;-78
2023/10/29 02:37:48;;;;;;;3.00;2.17;;;14.10;99.90;;;;;;980326;146;27188;-77
2023/10/29 02:40:15;;;;;;;3.33;1.90;;;14.10;99.90;;;;;;980981;143;27308;-78
2023/10/29 02:42:41;;;;;;;2.25;1.92;;;14.10;99.90;;;;;;979921;143;27783;-78
2023/10/29 02:45:08;;;;;;;2.95;2.45;;;14.10;99.90;;;;;;979019;143;27438;-78
2023/10/29 02:47:35;;;;;;;2.95;2.17;;;14.10;99.90;;;;;;980046;144;27335;-78
2023/10/29 02:50:01;;;;;;;3.03;2.00;;;14.10;99.90;;;;;;981795;143;27328;-78
2023/10/29 02:52:28;;;;;;;3.40;2.10;;;14.10;99.90;;;;;;978845;144;27189;-78
2023/10/29 02:54:56;;;;;;;1.67;1.57;;;14.20;99.90;;;;;;980132;143;27766;-78
2023/10/29 02:57:21;;;;;;;1.42;1.32;;;14.20;99.90;;;;;;979447;144;27292;-78
2023/10/29 02:59:48;;;;;;;1.90;1.80;;;14.20;99.90;;;;;;975932;144;27300;-77
2023/10/29 03:02:14;;;;;;;2.17;1.87;;;14.20;99.90;;;;;;973465;143;27367;-78
2023/10/29 03:04:41;;;;;;;1.82;1.72;;;14.20;99.90;;;;;;974939;144;27262;-77
2023/10/29 03:07:09;;;;;;;2.58;1.87;;;14.20;99.90;;;;;;974663;143;27275;-78
2023/10/29 03:09:34;;;;;;;4.60;1.80;;;14.20;99.90;;;;;;972276;143;27299;-78
2023/10/29 03:12:01;;;;;;;1.90;1.70;;;14.20;99.90;;;;;;976275;143;27313;-77
2023/10/29 03:14:27;;;;;;;5.20;1.85;;;14.20;99.90;;;;;;975791;144;27342;-78
2023/10/29 03:16:54;;;;;;;3.33;2.00;;;14.30;99.90;;;;;;976306;143;27257;-77
2023/10/29 03:19:20;;;;;;;2.02;1.82;;;14.20;99.90;;;;;;973687;143;27355;-77
2023/10/29 03:21:49;;;;;;;2.50;1.90;;;14.20;99.90;;;;;;975200;144;27295;-78
2023/10/29 03:24:15;;;;;;;2.40;1.70;;;14.20;99.90;;;;;;974675;143;27288;-77
2023/10/29 03:26:40;;;;;;;1.80;1.67;;;14.20;99.90;;;;;;975723;146;27417;-73
2023/10/29 03:29:07;;;;;;;2.22;1.80;;;14.20;99.90;;;;;;975802;143;27190;-75
2023/10/29 03:31:34;;;;;;;2.40;1.75;;;14.20;99.90;;;;;;976215;146;27434;-74
2023/10/29 03:34:00;;;;;;;2.35;1.80;;;14.20;99.90;;;;;;976372;143;27304;-76
2023/10/29 03:36:26;;;;;;;1.72;1.62;;;14.10;99.90;;;;;;975087;146;27206;-73
2023/10/29 03:38:53;;;;;;;1.92;1.70;;;14.10;99.90;;;;;;976176;144;27200;-77
2023/10/29 03:41:20;;;;;;;2.67;1.95;;;14.10;99.90;;;;;;975916;144;27309;-74
2023/10/29 03:43:47;;;;;;;3.50;2.15;;;14.10;99.90;;;;;;975445;143;27347;-73
2023/10/29 03:46:13;;;;;;;1.62;1.52;;;14.10;99.90;;;;;;976416;143;27404;-74
2023/10/29 03:48:44;;;;;;;2.08;1.65;;;14.10;99.90;;;;;;976024;144;27383;-74
2023/10/29 03:51:06;;;;;;;3.00;1.80;;;14.10;99.90;;;;;;972459;143;27353;-74
2023/10/29 03:53:33;;;;;;;1.87;1.62;;;14.10;99.90;;;;;;976311;144;27349;-74
2023/10/29 03:56:00;;;;;;;2.60;1.60;;;14.10;99.90;;;;;;975063;143;27225;-74
2023/10/29 03:58:26;;;;;;;4.08;1.67;;;14.10;99.90;;;;;;977110;144;27320;-74
2023/10/29 04:00:52;;;;;;;1.85;1.75;;;14.10;99.90;;;;;;980319;144;27397;-75
2023/10/29 04:03:19;;;;;;;2.75;1.70;;;14.20;99.90;;;;;;981027;145;27275;-75
2023/10/29 04:05:46;;;;;;;2.02;1.60;;;14.20;99.90;;;;;;981229;143;27276;-74
2023/10/29 04:08:12;;;;;;;1.67;1.57;;;14.20;99.90;;;;;;979453;143;27309;-74
2023/10/29 04:10:39;;;;;;;2.93;2.00;;;14.20;99.90;;;;;;979901;143;27189;-74
2023/10/29 04:13:05;;;;;;;2.05;1.70;;;14.20;99.90;;;;;;979246;143;27347;-75
2023/10/29 04:15:32;;;;;;;2.20;1.77;;;14.20;99.90;;;;;;980294;143;27300;-77
2023/10/29 04:17:58;;;;;;;2.83;2.15;;;14.20;99.90;;;;;;980741;143;27282;-76
2023/10/29 04:20:27;;;;;;;3.17;1.50;;;14.20;99.90;;;;;;981260;143;27347;-73
2023/10/29 04:22:52;;;;;;;2.05;1.70;;;14.20;99.90;;;;;;979674;143;27344;-75
2023/10/29 04:25:18;;;;;;;3.25;1.67;;;14.20;99.90;;;;;;981551;143;27268;-74
2023/10/29 04:27:45;;;;;;;1.75;1.55;;;14.20;99.90;;;;;;980477;143;27421;-75
2023/10/29 04:30:11;;;;;;;2.85;1.70;;;14.20;99.90;;;;;;980944;143;27245;-76
2023/10/29 04:32:38;;;;;;;1.85;1.55;;;14.20;99.90;;;;;;977882;143;27285;-77
2023/10/29 04:35:05;;;;;;;1.25;1.25;;;14.20;99.90;;;;;;979054;143;27270;-76
2023/10/29 04:37:31;;;;;;;2.98;1.52;;;14.20;99.90;;;;;;981147;143;27278;-77
2023/10/29 04:39:58;;;;;;;1.67;1.40;;;14.30;99.90;;;;;;980673;144;27297;-76
2023/10/29 04:42:24;;;;;;;2.70;1.60;;;14.30;99.90;;;;;;981619;143;27232;-77
2023/10/29 04:44:51;;;;;;;1.70;1.50;;;14.30;99.90;;;;;;979387;144;27915;-79
2023/10/29 04:47:18;;;;;;;1.57;1.47;;;14.30;99.90;;;;;;980882;143;27353;-77
2023/10/29 04:49:44;;;;;;;1.47;1.37;;;14.30;99.90;;;;;;981594;145;27324;-79
2023/10/29 04:52:11;;;;;;;2.02;1.57;;;14.30;99.90;;;;;;981515;143;27251;-79
2023/10/29 04:54:37;;;;;;;2.47;1.42;;;14.40;99.90;;;;;;980883;144;27352;-79
2023/10/29 04:57:04;;;;;;;3.10;1.80;;;14.40;99.90;;;;;;980112;143;27221;-79
2023/10/29 04:59:31;;;;;;;2.20;1.60;;;14.40;99.90;;;;;;978390;145;27390;-79
2023/10/29 05:01:57;;;;;;;3.50;1.55;;;14.40;99.90;;;;;;974255;146;27270;-79
2023/10/29 05:04:24;;;;;;;1.65;1.55;;;14.40;99.90;;;;;;975267;144;27657;-78
2023/10/29 05:06:50;;;;;;;1.55;1.30;;;14.40;99.90;;;;;;976167;144;27381;-79
2023/10/29 05:09:17;;;;;;;1.20;1.20;;;14.50;99.90;;;;;;975328;144;27350;-80
2023/10/29 05:11:43;;;;;;;2.42;1.32;;;14.50;99.90;;;;;;974805;143;27285;-79
2023/10/29 05:14:10;;;;;;;3.45;1.72;;;14.50;99.90;;;;;;973424;144;27304;-79
2023/10/29 05:16:37;;;;;;;1.82;1.37;;;14.50;99.90;;;;;;975882;144;27260;-79
2023/10/29 05:19:03;;;;;;;1.60;1.37;;;14.50;99.90;;;;;;976081;144;27168;-79
2023/10/29 05:21:30;;;;;;;2.55;1.32;;;14.50;99.90;;;;;;976180;144;27213;-77
2023/10/29 05:23:56;;;;;;;2.13;1.40;;;14.50;99.90;;;;;;976065;144;27323;-78
2023/10/29 05:26:23;;;;;;;8.83;1.90;;;14.40;99.90;;;;;;976219;146;27866;-76
2023/10/29 05:28:50;;;;;;;1.40;1.20;;;14.40;99.90;;;;;;975466;147;27634;-78
2023/10/29 05:31:16;;;;;;;2.17;1.35;;;14.40;99.90;;;;;;975404;143;27739;-77
2023/10/29 05:33:43;;;;;;;2.12;1.47;;;14.40;99.90;;;;;;975675;144;27353;-79
2023/10/29 05:36:09;;;;;;;2.65;1.20;;;14.40;99.90;;;;;;976359;143;27283;-79
2023/10/29 05:38:36;;;;;;;2.27;1.40;;;14.30;99.90;;;;;;974368;146;27237;-78
2023/10/29 05:41:03;;;;;;;1.67;1.40;;;14.30;99.90;;;;;;976121;143;27243;-78
2023/10/29 05:43:29;;;;;;;1.52;1.30;;;14.30;99.90;;;;;;975009;143;27197;-79
2023/10/29 05:45:56;;;;;;;1.42;1.30;;;14.30;99.90;;;;;;975425;143;27308;-77
2023/10/29 05:48:22;;;;;;;1.65;1.30;;;14.20;99.90;;;;;;976322;143;27284;-77
2023/10/29 05:50:49;;;;;;;1.65;1.10;;;14.20;99.90;;;;;;976228;144;27241;-77
2023/10/29 05:53:15;;;;;;;1.50;1.40;;;14.20;99.90;;;;;;975853;144;27288;-77
2023/10/29 05:55:42;;;;;;;1.47;1.37;;;14.20;99.90;;;;;;976741;146;27262;-74
2023/10/29 05:58:09;;;;;;;2.05;1.37;;;14.10;99.90;;;;;;976439;144;27334;-76
2023/10/29 06:00:35;;;;;;;1.52;1.30;;;14.10;99.90;;;;;;976668;144;27412;-76
2023/10/29 06:03:02;;;;;;;1.30;1.25;;;14.10;99.90;;;;;;977096;143;27364;-73
2023/10/29 06:05:28;;;;;;;1.85;1.42;;;14.00;99.90;;;;;;976197;144;27595;-74
2023/10/29 06:07:56;;;;;;;2.17;1.12;;;14.10;99.90;;;;;;975829;146;27660;-74
2023/10/29 06:10:22;;;;;;;1.50;1.40;;;14.00;99.90;;;;;;974220;143;27276;-75
2023/10/29 06:12:48;;;;;;;1.42;1.32;;;14.00;99.90;;;;;;975766;143;27304;-73
2023/10/29 06:15:15;;;;;;;1.72;1.40;;;14.00;99.90;;;;;;974971;143;27321;-75
2023/10/29 06:17:41;;;;;;;2.20;1.43;;;14.00;99.90;;;;;;975950;144;27333;-74
2023/10/29 06:20:16;;;;;;;4.50;1.33;;;14.00;99.90;;;;;;975606;143;27242;-74
2023/10/29 06:22:35;;;;;;;1.27;1.17;;;14.00;99.90;;;;;;974867;143;27257;-74
2023/10/29 06:25:01;;;;;;;1.22;1.12;;;14.00;99.90;;;;;;974894;144;27261;-74
2023/10/29 06:27:28;;;;;;;2.70;1.35;;;14.00;99.90;;;;;;976112;144;27271;-73
2023/10/29 06:29:54;;;;;;;1.47;1.37;;;14.00;99.90;;;;;;975516;143;27253;-77
2023/10/29 06:32:21;;;;;;;1.25;1.22;;;14.00;99.90;;;;;;976065;143;27345;-78
2023/10/29 06:34:48;;;;;;;1.40;1.30;;;14.10;99.90;;;;;;977120;145;27284;-75
2023/10/29 06:37:14;;;;;;;1.40;1.30;;;14.10;99.90;;;;;;975122;143;27220;-78
2023/10/29 06:39:41;;;;;;;1.30;1.20;;;14.10;99.90;;;;;;975945;145;27284;-76
2023/10/29 06:42:07;;;;;;;1.50;1.40;;;14.10;99.90;;;;;;975684;143;27366;-74
2023/10/29 06:44:34;;;;;;;1.67;1.57;;;14.10;99.90;;;;;;974917;144;27261;-75
2023/10/29 06:47:00;;;;;;;2.33;1.55;;;14.20;99.90;;;;;;975693;143;27346;-74
2023/10/29 06:49:28;;;;;;;1.62;1.52;;;14.20;99.90;;;;;;976105;143;27260;-77
2023/10/29 06:51:54;;;;;;;1.90;1.80;;;14.20;99.90;;;;;;975257;144;28051;-75
2023/10/29 06:54:23;;;;;;;1.67;1.57;;;14.20;99.90;;;;;;974461;143;27255;-76
2023/10/29 06:56:47;;;;;;;2.42;1.75;;;14.20;99.90;;;;;;974567;144;27269;-79
2023/10/29 06:59:13;;;;;;;3.25;1.52;;;14.20;99.90;;;;;;974910;143;27365;-80
2023/10/29 07:01:40;;;;;;;1.92;1.50;;;14.20;99.90;;;;;;975584;144;27307;-77
2023/10/29 07:04:07;;;;;;;2.58;1.62;;;14.10;99.90;;;;;;976230;146;27186;-78
2023/10/29 07:06:33;;;;;;;1.62;1.52;;;14.10;99.90;;;;;;974797;146;27307;-78
2023/10/29 07:09:00;;;;;;;1.87;1.55;;;14.10;99.90;;;;;;974642;143;27361;-78
2023/10/29 07:11:29;;;;;;;1.47;1.37;;;14.10;99.90;;;;;;975360;144;27197;-78
2023/10/29 07:13:53;;;;;;;3.33;1.80;;;14.10;99.90;;;;;;974618;143;27345;-78
2023/10/29 07:16:20;;;;;;;2.47;1.50;;;14.10;99.90;;;;;;975648;144;27828;-78
2023/10/29 07:18:46;;;;;;;1.67;1.40;;;14.10;99.90;;;;;;974997;143;27259;-78
2023/10/29 07:21:14;;;;;;;3.27;1.45;;;14.10;99.90;;;;;;976855;143;27666;-78
2023/10/29 07:23:39;;;;;;;2.58;1.37;;;14.10;99.90;;;;;;976594;143;27357;-78
2023/10/29 07:26:06;;;;;;;1.77;1.20;;;14.10;99.90;;;;;;975947;144;27260;-78
2023/10/29 07:28:34;;;;;;;1.30;1.20;;;14.10;99.90;;;;;;974934;144;27340;-78
2023/10/29 07:30:59;;;;;;;1.57;1.47;;;14.20;99.90;;;;;;974911;144;27284;-78
2023/10/29 07:33:26;;;;;;;1.05;1.05;;;14.20;99.90;;;;;;974540;143;27286;-78
2023/10/29 07:35:52;;;;;;;4.75;1.55;;;14.20;99.90;;;;;;973692;143;27259;-78
2023/10/29 07:38:19;;;;;;;2.08;1.17;;;14.20;99.90;;;;;;976741;143;27274;-78
2023/10/29 07:40:45;;;;;;;1.67;1.40;;;14.30;99.90;;;;;;976190;144;27263;-78
2023/10/29 07:43:12;;;;;;;5.60;1.65;;;14.30;99.90;;;;;;974082;143;27253;-78
2023/10/29 07:45:39;;;;;;;1.85;1.10;;;14.40;99.90;;;;;;976531;143;27290;-78
2023/10/29 07:48:05;;;;;;;1.22;1.20;;;14.40;99.90;;;;;;974956;144;27202;-78
2023/10/29 07:50:32;;;;;;;1.20;1.10;;;14.40;99.90;;;;;;975510;146;27295;-79
2023/10/29 07:52:58;;;;;;;0.93;0.85;;;14.50;99.90;;;;;;975918;144;27294;-78
2023/10/29 07:55:25;;;;;;;2.02;1.55;;;14.60;99.90;;;;;;977232;143;27725;-78
2023/10/29 07:57:52;;;;;;;1.70;1.07;;;14.60;99.90;;;;;;976158;146;27249;-78
2023/10/29 08:00:18;;;;;;;1.20;0.90;;;14.60;99.90;;;;;;975677;144;27242;-79
2023/10/29 08:02:45;;;;;;;1.60;1.02;;;14.70;99.90;;;;;;974756;144;27261;-78
2023/10/29 08:05:11;;;;;;;1.35;1.07;;;14.70;99.90;;;;;;975491;143;27265;-78
2023/10/29 08:07:38;;;;;;;1.47;1.37;;;14.80;99.90;;;;;;976274;146;27346;-77
2023/10/29 08:10:04;;;;;;;1.72;1.10;;;14.80;99.90;;;;;;974799;143;27265;-77
2023/10/29 08:12:31;;;;;;;1.50;1.40;;;14.90;99.90;;;;;;976015;146;27284;-77
2023/10/29 08:14:58;;;;;;;1.02;1.00;;;14.90;99.90;;;;;;975516;144;27401;-78
2023/10/29 08:17:25;;;;;;;1.27;1.20;;;14.90;99.90;;;;;;955315;147;27327;-79
2023/10/29 08:19:52;;;;;;;2.62;1.25;;;14.90;99.90;;;;;;934328;149;27383;-80
2023/10/29 08:22:17;;;;;;;1.27;1.17;;;15.00;99.90;;;;;;955013;147;27361;-79
2023/10/29 08:24:44;;;;;;;0.90;0.90;;;15.00;99.90;;;;;;934743;150;27447;-79
2023/10/29 08:27:11;;;;;;;2.05;1.17;;;15.00;99.90;;;;;;975340;144;27651;-78
2023/10/29 08:29:41;;;;;;;1.07;0.88;;;15.00;99.90;;;;;;975877;143;28245;-79
2023/10/29 08:32:04;;;;;;;1.10;0.88;;;15.10;99.90;;;;;;973416;143;27311;-78
2023/10/29 08:34:30;;;;;;;1.00;1.00;;;15.10;99.90;;;;;;975300;143;27234;-79
2023/10/29 08:36:57;;;;;;;2.17;1.30;;;15.20;99.90;;;;;;975432;144;27204;-80
2023/10/29 08:39:24;;;;;;;0.90;0.85;;;15.20;99.90;;;;;;976310;143;27205;-79
2023/10/29 08:41:50;;;;;;;1.32;1.22;;;15.30;99.90;;;;;;975745;143;27341;-79
2023/10/29 08:44:20;;;;;;;1.92;1.20;;;15.30;99.90;;;;;;975058;143;27753;-79
2023/10/29 08:46:49;;;;;;;1.15;1.07;;;15.40;99.90;;;;;;976791;144;27280;-77
2023/10/29 08:49:16;;;;;;;1.02;0.93;;;15.40;99.90;;;;;;975266;143;28385;-79
2023/10/29 08:51:42;;;;;;;1.25;1.10;;;15.50;99.90;;;;;;976903;143;27261;-79
2023/10/29 08:54:09;;;;;;;1.67;0.93;;;15.50;99.90;;;;;;974714;143;27396;-79
2023/10/29 08:56:35;;;;;;;0.80;0.80;;;15.60;99.90;;;;;;975458;144;27292;-79
2023/10/29 08:59:02;;;;;;;1.70;1.12;;;15.60;99.90;;;;;;976052;143;27293;-77
2023/10/29 09:01:29;;;;;;;1.37;1.22;;;15.70;99.90;;;;;;974668;144;27331;-78
2023/10/29 09:03:55;;;;;;;2.15;1.20;;;15.70;99.90;;;;;;975726;144;27278;-78
2023/10/29 09:06:22;;;;;;;1.50;1.12;;;15.80;99.90;;;;;;974778;143;27373;-80
2023/10/29 09:08:48;;;;;;;1.25;1.12;;;15.90;99.90;;;;;;974464;143;27289;-80
2023/10/29 09:11:15;;;;;;;1.82;1.00;;;15.90;99.90;;;;;;975680;143;27229;-79
2023/10/29 09:13:42;;;;;;;0.70;0.68;;;16.00;99.90;;;;;;975387;144;27241;-79
2023/10/29 09:16:08;;;;;;;1.35;0.98;;;16.10;99.90;;;;;;975432;143;27905;-79
2023/10/29 09:18:35;;;;;;;1.00;1.00;;;16.10;99.90;;;;;;976530;144;27322;-78
2023/10/29 09:21:01;;;;;;;1.07;0.82;;;16.20;99.90;;;;;;976213;144;27356;-78
2023/10/29 09:23:29;;;;;;;0.70;0.70;;;16.30;99.90;;;;;;975655;146;27377;-79
2023/10/29 09:25:55;;;;;;;0.60;0.60;;;16.30;99.90;;;;;;975924;143;27347;-77
2023/10/29 09:28:21;;;;;;;2.52;1.22;;;16.40;99.90;;;;;;976463;146;27297;-77
2023/10/29 09:30:48;;;;;;;1.27;1.00;;;16.50;99.90;;;;;;976442;144;27186;-77
2023/10/29 09:33:15;;;;;;;0.60;0.60;;;16.50;99.90;;;;;;976441;144;27407;-76
2023/10/29 09:35:41;;;;;;;0.68;0.68;;;16.60;99.90;;;;;;975998;146;27271;-78
2023/10/29 09:38:07;;;;;;;2.35;0.80;;;16.60;99.90;;;;;;975871;146;27230;-77
2023/10/29 09:40:34;;;;;;;0.65;0.65;;;16.70;99.90;;;;;;974788;144;27276;-77
2023/10/29 09:43:03;;;;;;;0.98;0.55;;;16.70;99.90;;;;;;974513;143;27292;-77
2023/10/29 09:45:31;;;;;;;1.72;0.82;;;16.80;99.90;;;;;;975540;143;27331;-77
2023/10/29 09:47:59;;;;;;;0.68;0.60;;;16.80;99.90;;;;;;975813;144;27722;-77
2023/10/29 09:50:23;;;;;;;1.67;1.20;;;16.90;99.90;;;;;;975876;146;27284;-76
2023/10/29 09:52:50;;;;;;;0.88;0.85;;;16.90;99.90;;;;;;976858;145;28342;-76
2023/10/29 09:55:16;;;;;;;1.50;1.40;;;17.00;99.90;;;;;;976747;144;27190;-77
2023/10/29 09:57:43;;;;;;;1.37;1.27;;;17.10;99.90;;;;;;974916;146;27306;-77
2023/10/29 10:00:09;;;;;;;1.57;1.37;;;17.10;99.90;;;;;;976399;144;27338;-77
2023/10/29 10:02:55;;;;;;;2.62;1.15;;;17.20;99.90;;;;;;976492;146;27400;-77
2023/10/29 10:05:21;;;;;;;1.40;1.10;;;17.20;99.90;;;;;;976213;144;27300;-76
2023/10/29 10:07:47;;;;;;;1.30;1.20;;;17.30;99.90;;;;;;975666;146;27268;-76
2023/10/29 10:10:14;;;;;;;1.47;1.30;;;17.30;99.90;;;;;;975857;144;27397;-77
2023/10/29 10:12:46;;;;;;;1.87;1.50;;;17.40;99.90;;;;;;975935;144;27258;-76
2023/10/29 10:15:16;;;;;;;1.32;1.22;;;17.40;99.90;;;;;;976317;143;27276;-77
2023/10/29 10:17:46;;;;;;;1.77;1.67;;;17.40;99.90;;;;;;975855;144;27400;-76
2023/10/29 10:20:12;;;;;;;2.00;1.65;;;17.40;99.90;;;;;;973122;144;27308;-76
2023/10/29 10:22:39;;;;;;;2.62;1.80;;;17.40;99.90;;;;;;976859;146;27280;-76
2023/10/29 10:25:05;;;;;;;1.55;1.45;;;17.40;99.90;;;;;;974841;143;27615;-80
2023/10/29 10:27:32;;;;;;;1.70;1.60;;;17.40;99.90;;;;;;975206;143;27240;-78
2023/10/29 10:29:58;;;;;;;2.50;1.60;;;17.40;99.90;;;;;;972763;144;27174;-80
2023/10/29 10:32:25;;;;;;;2.40;2.20;;;17.40;99.90;;;;;;977157;143;27346;-80
2023/10/29 10:34:51;;;;;;;1.35;1.10;;;17.50;99.90;;;;;;977005;146;27341;-80
2023/10/29 10:37:18;;;;;;;1.40;1.22;;;17.50;99.90;;;;;;975687;144;27305;-80
2023/10/29 10:39:45;;;;;;;1.60;1.50;;;17.50;99.90;;;;;;976197;143;27208;-80
2023/10/29 10:42:11;;;;;;;1.70;1.60;;;17.50;99.90;;;;;;976114;146;27849;-79
2023/10/29 10:44:38;;;;;;;1.02;1.02;;;17.40;99.90;;;;;;974519;144;27297;-80
2023/10/29 10:47:04;;;;;;;1.32;1.00;;;17.40;99.90;;;;;;974724;146;27369;-80
2023/10/29 10:49:32;;;;;;;2.45;0.85;;;17.30;99.90;;;;;;975118;144;27306;-80
2023/10/29 10:54:19;;;;;;;2.15;1.25;;;17.30;99.90;;;;;;968080;145;37497;-80
2023/10/29 10:56:45;;;;;;;1.52;1.10;;;17.20;99.90;;;;;;955326;147;27392;-79
2023/10/29 10:59:12;;;;;;;1.17;0.68;;;17.20;99.90;;;;;;956892;146;27315;-79
2023/10/29 11:01:38;;;;;;;1.10;1.00;;;17.20;99.90;;;;;;956426;147;27428;-78
2023/10/29 11:04:05;;;;;;;0.72;0.72;;;17.20;99.90;;;;;;957499;148;27307;-80
2023/10/29 11:06:32;;;;;;;1.27;1.02;;;17.20;99.90;;;;;;956413;147;27342;-80
2023/10/29 11:08:59;;;;;;;1.75;0.80;;;17.10;99.90;;;;;;955108;147;27342;-79
2023/10/29 11:11:27;;;;;;;0.98;0.95;;;17.20;99.90;;;;;;953881;147;27351;-79
2023/10/29 11:14:09;;;;;;;0.70;0.70;;;17.20;99.90;;;;;;956667;147;27352;-77
2023/10/29 11:16:35;;;;;;;0.82;0.80;;;17.20;99.90;;;;;;958380;147;27785;-81
2023/10/29 11:19:04;;;;;;;1.17;0.60;;;17.10;99.90;;;;;;954296;147;27312;-81
2023/10/29 11:21:35;;;;;;;1.05;0.85;;;17.10;99.90;;;;;;955357;149;27382;-80
2023/10/29 11:24:17;;;;;;;0.93;0.75;;;17.10;99.90;;;;;;956640;147;28050;-79
2023/10/29 11:26:43;;;;;;;0.95;0.70;;;17.10;99.90;;;;;;957243;147;27451;-81
2023/10/29 11:29:09;;;;;;;1.05;0.72;;;17.10;99.90;;;;;;956119;146;27354;-81
2023/10/29 11:31:36;;;;;;;1.85;0.93;;;17.10;99.90;;;;;;953878;147;28033;-80
2023/10/29 11:34:05;;;;;;;0.50;0.50;;;17.10;99.90;;;;;;954817;147;27370;-81
2023/10/29 11:36:32;;;;;;;0.65;0.65;;;17.10;99.90;;;;;;954166;146;27297;-77
2023/10/29 11:39:18;;;;;;;1.10;1.00;;;17.00;99.90;;;;;;956267;146;27435;-77
2023/10/29 11:41:43;;;;;;;0.70;0.70;;;17.00;99.90;;;;;;953708;147;27284;-77
2023/10/29 11:44:19;;;;;;;1.10;0.70;;;17.00;99.90;;;;;;954731;147;27300;-78
2023/10/29 11:47:03;;;;;;;1.22;1.10;;;17.00;99.90;;;;;;956002;147;27381;-79
2023/10/29 11:49:44;;;;;;;1.62;1.40;;;17.00;99.90;;;;;;956526;146;27688;-79
2023/10/29 11:52:08;;;;;;;0.93;0.75;;;16.90;99.90;;;;;;957990;146;27320;-79
2023/10/29 11:54:37;;;;;;;2.35;1.20;;;16.90;99.90;;;;;;952163;147;28241;-79
2023/10/29 11:57:02;;;;;;;0.70;0.70;;;16.80;99.90;;;;;;952347;146;27390;-79
2023/10/29 11:59:30;;;;;;;1.00;0.93;;;16.80;99.90;;;;;;951899;146;27411;-79
2023/10/29 12:01:55;;;;;;;0.70;0.70;;;16.80;99.90;;;;;;951855;147;27406;-79
2023/10/29 12:04:21;;;;;;;1.02;0.60;;;16.80;99.90;;;;;;951209;146;27311;-79
2023/10/29 12:06:48;;;;;;;0.60;0.60;;;16.80;99.90;;;;;;950583;149;27419;-79
2023/10/29 12:09:17;;;;;;;1.02;0.75;;;16.80;99.90;;;;;;952338;147;27293;-79
2023/10/29 12:11:44;;;;;;;2.17;0.70;;;16.80;99.90;;;;;;950794;147;27377;-79
2023/10/29 12:14:10;;;;;;;1.50;0.72;;;16.90;99.90;;;;;;948958;147;27294;-79
2023/10/29 12:19:16;;;;;;;0.60;0.60;;;16.90;99.90;;;;;;971478;145;37305;-77
2023/10/29 12:21:52;;;;;;;0.98;0.80;;;16.90;99.90;;;;;;955110;148;27340;-77
2023/10/29 12:24:18;;;;;;;0.95;0.57;;;16.80;99.90;;;;;;953842;147;27397;-79
2023/10/29 12:26:45;;;;;;;2.33;0.45;;;16.80;99.90;;;;;;955858;147;27321;-79
2023/10/29 12:29:12;;;;;;;0.55;0.55;;;16.80;99.90;;;;;;956126;147;27326;-79
2023/10/29 12:31:38;;;;;;;1.42;0.70;;;16.80;99.90;;;;;;954341;148;27388;-79
2023/10/29 12:34:05;;;;;;;1.65;1.30;;;16.80;99.90;;;;;;956561;147;27442;-79
2023/10/29 12:36:32;;;;;;;2.72;1.75;;;16.80;99.90;;;;;;955334;148;27371;-79
2023/10/29 12:38:58;;;;;;;1.17;1.07;;;16.80;99.90;;;;;;953669;147;27238;-79
2023/10/29 12:41:27;;;;;;;0.75;0.75;;;16.80;99.90;;;;;;956285;148;27386;-79
2023/10/29 12:43:52;;;;;;;0.60;0.60;;;16.70;99.90;;;;;;956596;147;27310;-79
2023/10/29 12:46:18;;;;;;;0.90;0.90;;;16.70;99.90;;;;;;943337;148;27456;-79
2023/10/29 12:48:59;;;;;;;1.50;1.40;;;16.70;99.90;;;;;;941871;148;27847;-79
2023/10/29 12:51:35;;;;;;;1.00;1.00;;;16.70;99.90;;;;;;942650;149;27348;-78